createdAt,value
2018-07-05T00:03:46.483Z,22.80
2018-07-05T00:06:15.406Z,24.20
2018-07-05T00:11:34.555Z,20.80
2018-07-05T00:14:06.880Z,23.60
2018-07-05T00:22:06.668Z,27.20
2018-07-05T00:24:40.309Z,22.00
2018-07-05T00:37:36.478Z,22.60
2018-07-05T00:40:53.915Z,23.40
2018-07-05T00:46:02.670Z,21.20
2018-07-05T01:03:19.651Z,23.20
2018-07-05T01:05:47.355Z,23.20
2018-07-05T01:08:44.126Z,21.20
2018-07-05T01:13:45.959Z,28.40
2018-07-05T01:18:55.773Z,28.40
2018-07-05T01:26:45.289Z,29.00
2018-07-05T01:46:21.246Z,19.40
2018-07-05T01:48:48.878Z,25.40
2018-07-05T01:51:16.824Z,18.40
2018-07-05T11:44:09.759Z,23.60
2018-07-05T11:49:12.580Z,23.80
2018-07-05T11:51:40.187Z,24.80
2018-07-05T11:54:09.316Z,25.20
2018-07-05T11:56:38.281Z,25.00
2018-07-05T11:59:08.487Z,25.20
2018-07-05T12:01:40.867Z,24.20
2018-07-05T12:04:09.201Z,26.00
2018-07-05T12:06:37.784Z,25.80
2018-07-05T12:09:10.207Z,24.80
2018-07-05T12:12:08.347Z,24.00
2018-07-05T12:14:38.893Z,22.20
2018-07-05T12:17:06.524Z,26.00
2018-07-05T12:19:34.138Z,22.80
2018-07-05T12:22:54.564Z,27.00
2018-07-05T12:25:25.749Z,25.40
2018-07-05T14:16:14.801Z,25.00
2018-07-05T14:18:42.489Z,23.00
2018-07-05T14:21:10.804Z,21.40
2018-07-05T14:23:39.273Z,23.60
2018-07-05T14:26:07.659Z,27.00
2018-07-05T14:28:35.363Z,26.00
2018-07-05T14:31:04.941Z,24.00
2018-07-05T14:33:32.662Z,24.40
2018-07-05T14:36:01.107Z,25.00
2018-07-05T14:38:29.231Z,25.40
2018-07-05T14:41:01.544Z,29.00
2018-07-05T14:43:36.656Z,26.00
2018-07-05T14:46:06.054Z,29.20
2018-07-05T14:48:33.723Z,25.40
2018-07-05T14:51:01.688Z,24.80
2018-07-05T14:53:29.657Z,26.20
2018-07-05T14:55:57.775Z,29.00
2018-07-05T14:58:25.457Z,28.20
2018-07-05T15:00:55.994Z,26.20
2018-07-05T15:03:24.369Z,24.40
2018-07-05T15:05:52.223Z,26.20
2018-07-05T15:08:21.558Z,26.00
2018-07-05T15:10:49.252Z,26.20
2018-07-05T15:13:17.536Z,24.60
2018-07-05T15:15:45.459Z,22.20
2018-07-05T15:18:20.559Z,21.20
2018-07-05T15:23:21.619Z,26.80
2018-07-05T15:25:49.289Z,23.80
2018-07-05T15:30:54.481Z,20.40
2018-07-05T15:33:25.333Z,24.20
2018-07-05T15:35:53.835Z,21.00
2018-07-05T15:38:21.804Z,25.60
2018-07-05T15:40:53.275Z,26.00
2018-07-05T15:43:20.944Z,25.60
2018-07-05T15:48:22.820Z,26.00
2018-07-05T15:50:50.680Z,26.00
2018-07-05T15:55:59.201Z,23.00
2018-07-05T15:58:37.254Z,27.40
2018-07-05T16:01:06.732Z,21.40
2018-07-05T16:03:34.398Z,24.00
2018-07-05T16:06:04.686Z,23.40
2018-07-05T16:08:34.472Z,25.00
2018-07-05T16:11:03.326Z,25.60
2018-07-05T16:13:32.621Z,27.20
2018-07-05T16:16:01.785Z,24.00
2018-07-05T16:18:30.093Z,25.20
2018-07-05T16:20:58.281Z,21.40
2018-07-05T16:23:26.248Z,25.60
2018-07-05T16:25:53.939Z,23.80
2018-07-05T16:28:22.199Z,24.20
2018-07-05T16:30:50.194Z,23.60
2018-07-05T16:33:20.865Z,23.60
2018-07-05T16:35:49.197Z,24.40
2018-07-05T16:38:17.141Z,19.40
2018-07-05T16:40:44.821Z,20.40
2018-07-05T16:43:13.720Z,21.80
2018-07-05T16:45:43.296Z,18.00
2018-07-05T16:48:10.996Z,23.20
2018-07-05T16:50:57.422Z,21.80
2018-07-05T16:58:52.115Z,19.00
2018-07-05T17:01:20.791Z,23.00
2018-07-05T17:03:53.273Z,20.00
2018-07-05T17:06:25.815Z,15.40
2018-07-05T17:09:01.237Z,22.20
2018-07-05T17:11:30.258Z,17.20
2018-07-05T17:53:20.966Z,6.00
2018-07-05T17:55:48.593Z,6.00
2018-07-05T17:58:17.800Z,6.00
2018-07-05T18:00:46.481Z,6.00
2018-07-05T18:03:24.969Z,5.00
2018-07-05T18:05:54.364Z,7.20
2018-07-05T18:08:22.631Z,5.80
2018-07-05T18:10:54.262Z,6.00
2018-07-05T18:13:21.883Z,5.60
2018-07-05T18:27:44.679Z,6.20
2018-07-05T19:22:55.875Z,2.00
2018-07-05T19:25:23.495Z,2.00
2018-07-05T19:27:53.233Z,3.20
2018-07-05T19:30:20.897Z,2.00
2018-07-05T19:32:50.299Z,2.00
2018-07-05T19:36:37.028Z,2.00
